createdAt,value
2023-09-11T00:00:17.581Z,28.23
2023-09-11T00:02:48.155Z,27.63
2023-09-11T00:05:18.228Z,26.65
2023-09-11T00:07:46.709Z,26.88
2023-09-11T00:10:17.573Z,25.67
2023-09-11T00:12:49.207Z,26.55
2023-09-11T00:15:18.322Z,28.17
2023-09-11T00:17:49.305Z,29.60
2023-09-11T00:20:26.941Z,30.35
2023-09-11T00:22:57.243Z,30.75
2023-09-11T00:25:29.888Z,31.85
2023-09-11T00:27:58.508Z,34.10
2023-09-11T00:30:27.243Z,35.63
2023-09-11T00:32:57.473Z,32.55
2023-09-11T00:35:26.304Z,36.88
2023-09-11T00:37:55.158Z,36.33
2023-09-11T00:40:24.036Z,35.17
2023-09-11T00:42:52.829Z,31.75
2023-09-11T00:45:21.621Z,32.92
2023-09-11T00:47:50.328Z,32.67
2023-09-11T00:50:20.567Z,35.25
2023-09-11T00:52:49.600Z,34.03
2023-09-11T00:55:20.552Z,32.55
2023-09-11T00:57:50.508Z,33.67
2023-09-11T01:00:19.207Z,35.03
2023-09-11T01:02:48.541Z,32.70
2023-09-11T01:05:17.248Z,33.72
2023-09-11T01:07:47.539Z,33.95
2023-09-11T01:10:16.075Z,32.95
2023-09-11T01:12:44.910Z,31.40
2023-09-11T01:15:13.538Z,31.48
2023-09-11T01:17:47.616Z,30.58
2023-09-11T01:20:42.740Z,30.20
2023-09-11T01:23:34.997Z,28.25
2023-09-11T01:26:17.251Z,27.65
2023-09-11T01:29:08.379Z,27.10
2023-09-11T01:31:38.990Z,28.00
2023-09-11T01:34:08.282Z,26.70
2023-09-11T01:36:36.845Z,27.23
2023-09-11T01:39:06.329Z,26.80
2023-09-11T01:41:36.791Z,26.85
2023-09-11T01:44:14.928Z,27.67
2023-09-11T01:46:45.472Z,27.95
2023-09-11T01:49:16.177Z,29.08
2023-09-11T01:51:46.978Z,27.70
2023-09-11T01:54:15.780Z,29.42
2023-09-11T01:56:44.462Z,28.60
2023-09-11T01:59:15.467Z,28.77
2023-09-11T02:01:45.776Z,28.65
2023-09-11T02:04:14.569Z,28.48
2023-09-11T02:06:44.585Z,27.75
2023-09-11T02:09:13.449Z,27.02
2023-09-11T02:11:42.117Z,28.20
2023-09-11T02:14:12.170Z,29.70
2023-09-11T02:16:42.767Z,28.00
2023-09-11T02:19:11.382Z,27.45
2023-09-11T02:21:44.188Z,30.67
2023-09-11T02:24:13.270Z,28.67
2023-09-11T02:26:41.889Z,29.10
2023-09-11T02:29:10.820Z,28.95
2023-09-11T02:31:39.735Z,28.10
2023-09-11T02:34:09.877Z,29.10
2023-09-11T02:36:38.546Z,27.45
2023-09-11T02:39:07.418Z,28.70
2023-09-11T02:41:36.066Z,28.15
2023-09-11T02:44:04.787Z,28.13
2023-09-11T02:46:33.244Z,28.42
2023-09-11T02:49:02.485Z,28.52
2023-09-11T02:51:32.824Z,28.15
2023-09-11T02:54:02.182Z,27.40
2023-09-11T02:56:30.809Z,28.40
2023-09-11T02:59:01.492Z,29.00
2023-09-11T03:01:30.309Z,27.85
2023-09-11T03:03:59.390Z,26.33
2023-09-11T03:06:28.010Z,27.08
2023-09-11T03:08:58.995Z,27.88
2023-09-11T03:11:27.871Z,27.63
2023-09-11T03:13:56.553Z,27.20
2023-09-11T03:16:25.676Z,27.70
2023-09-11T03:18:58.102Z,28.90
2023-09-11T03:21:27.036Z,28.10
2023-09-11T03:24:00.248Z,28.85
2023-09-11T03:26:29.370Z,27.80
2023-09-11T03:28:58.403Z,27.88
2023-09-11T03:31:31.083Z,28.73
2023-09-11T03:34:01.064Z,28.73
2023-09-11T03:36:30.110Z,28.58
2023-09-11T03:39:00.403Z,28.10
2023-09-11T03:41:29.162Z,27.85
2023-09-11T03:43:58.014Z,27.30
2023-09-11T03:46:26.724Z,28.10
2023-09-11T03:48:56.235Z,27.85
2023-09-11T03:51:25.525Z,27.85
2023-09-11T03:53:55.575Z,28.15
2023-09-11T03:56:29.626Z,28.63
2023-09-11T03:58:58.627Z,29.75
2023-09-11T04:01:27.231Z,30.63
2023-09-11T04:03:56.208Z,28.42
2023-09-11T04:06:25.661Z,29.02
2023-09-11T04:08:54.298Z,28.25
2023-09-11T04:11:24.573Z,29.00
2023-09-11T04:13:54.792Z,27.80
2023-09-11T04:16:23.709Z,27.63
2023-09-11T04:18:52.606Z,29.05
2023-09-11T04:21:21.915Z,29.40
2023-09-11T04:23:53.975Z,27.40
2023-09-11T04:26:23.610Z,27.77
2023-09-11T04:28:52.242Z,29.80
2023-09-11T04:31:22.583Z,27.70
2023-09-11T04:33:51.187Z,27.55
2023-09-11T04:36:20.111Z,27.35
2023-09-11T04:38:48.733Z,27.27
2023-09-11T04:41:17.665Z,26.60
2023-09-11T04:43:47.506Z,27.73
2023-09-11T04:46:17.678Z,25.50
2023-09-11T04:48:48.148Z,28.05
2023-09-11T04:51:17.321Z,26.95
2023-09-11T04:53:45.844Z,27.27
2023-09-11T04:56:14.833Z,28.42
2023-09-11T04:58:43.673Z,27.40
2023-09-11T05:01:12.727Z,28.38
2023-09-11T05:03:43.585Z,27.42
2023-09-11T05:06:13.680Z,27.60
2023-09-11T05:09:02.359Z,25.52
2023-09-11T05:11:31.352Z,26.90
2023-09-11T05:14:00.587Z,27.83
2023-09-11T05:16:29.116Z,27.63
2023-09-11T05:18:57.706Z,31.80
2023-09-11T05:21:28.001Z,30.08
2023-09-11T05:23:56.573Z,26.98
2023-09-11T05:26:25.401Z,28.65
2023-09-11T05:28:54.103Z,28.52
2023-09-11T05:31:22.752Z,27.83
2023-09-11T05:33:51.423Z,27.63
2023-09-11T05:36:19.984Z,29.10
2023-09-11T05:38:50.624Z,28.92
2023-09-11T05:41:22.711Z,28.35
2023-09-11T05:43:51.389Z,28.02
2023-09-11T05:46:20.004Z,27.17
2023-09-11T05:48:48.864Z,27.42
2023-09-11T05:51:17.604Z,26.90
2023-09-11T05:53:46.290Z,27.08
2023-09-11T05:56:16.504Z,28.17
2023-09-11T05:58:45.303Z,27.13
2023-09-11T06:01:15.138Z,28.30
2023-09-11T06:03:44.880Z,27.13
2023-09-11T06:06:14.129Z,28.42
2023-09-11T06:08:43.615Z,29.15
2023-09-11T06:11:12.392Z,29.38
2023-09-11T06:13:43.177Z,28.80
2023-09-11T06:16:13.568Z,29.63
2023-09-11T06:18:42.660Z,28.27
2023-09-11T06:21:11.559Z,29.67
2023-09-11T06:23:42.246Z,29.13
2023-09-11T06:26:11.441Z,28.02
2023-09-11T06:28:40.278Z,28.05
2023-09-11T06:31:10.790Z,28.23
2023-09-11T06:33:39.832Z,61.40
2023-09-11T06:36:08.659Z,46.72
2023-09-11T06:38:37.220Z,31.75
2023-09-11T06:41:07.126Z,28.95
2023-09-11T06:43:35.537Z,28.42
2023-09-11T06:46:04.710Z,26.60
2023-09-11T06:48:34.665Z,29.35
2023-09-11T06:51:05.271Z,28.23
2023-09-11T06:53:34.101Z,28.85
2023-09-11T06:56:02.527Z,27.88
2023-09-11T06:58:31.923Z,26.25
2023-09-11T07:01:00.647Z,27.48
2023-09-11T07:03:29.312Z,26.63
2023-09-11T07:05:59.604Z,26.65
2023-09-11T07:08:28.643Z,25.60
2023-09-11T07:10:57.751Z,25.60
2023-09-11T07:13:26.336Z,25.35
2023-09-11T07:15:58.615Z,25.95
2023-09-11T07:18:28.062Z,26.05
2023-09-11T07:20:56.982Z,24.08
2023-09-11T07:23:29.416Z,23.23
2023-09-11T07:25:59.098Z,24.17
2023-09-11T07:28:28.769Z,22.60
2023-09-11T07:30:57.671Z,20.13
2023-09-11T07:33:26.455Z,19.75
2023-09-11T07:35:55.367Z,17.73
2023-09-11T07:38:24.079Z,16.35
2023-09-11T07:40:54.125Z,13.63
2023-09-11T07:43:23.569Z,12.32
2023-09-11T07:45:52.298Z,7.32
2023-09-11T07:48:21.055Z,6.80
2023-09-11T07:50:58.564Z,11.52
2023-09-11T07:53:28.333Z,9.60
2023-09-11T07:55:58.755Z,8.73
2023-09-11T07:58:27.643Z,10.25
2023-09-11T08:00:56.554Z,12.43
2023-09-11T08:03:25.673Z,10.27
2023-09-11T08:05:54.706Z,10.00
2023-09-11T08:08:23.315Z,9.13
2023-09-11T08:10:56.290Z,8.40
2023-09-11T08:13:28.553Z,4.32
2023-09-11T08:15:57.141Z,3.67
2023-09-11T08:18:25.736Z,3.60
2023-09-11T08:20:54.571Z,3.70
2023-09-11T08:23:23.837Z,4.70
2023-09-11T08:25:52.274Z,4.75
2023-09-11T08:28:21.647Z,4.22
2023-09-11T08:30:52.067Z,4.72
2023-09-11T08:33:20.808Z,4.47
2023-09-11T08:35:50.032Z,4.43
2023-09-11T08:38:18.692Z,4.45
2023-09-11T08:40:47.842Z,3.70
2023-09-11T08:43:16.787Z,3.60
2023-09-11T08:45:45.627Z,5.13
2023-09-11T08:48:17.538Z,3.78
2023-09-11T08:50:51.707Z,3.00
2023-09-11T08:53:21.344Z,4.40
2023-09-11T08:55:52.142Z,3.30
2023-09-11T08:58:24.546Z,3.28
2023-09-11T09:00:56.025Z,2.95
2023-09-11T09:03:28.117Z,2.65
2023-09-11T09:05:59.410Z,3.58
2023-09-11T09:08:28.834Z,2.90
2023-09-11T09:10:57.541Z,3.20
2023-09-11T09:13:28.801Z,3.38
2023-09-11T09:15:57.548Z,2.80
2023-09-11T09:18:27.802Z,3.50
2023-09-11T09:20:57.236Z,2.45
2023-09-11T09:23:34.411Z,3.00
2023-09-11T09:26:08.069Z,3.42
2023-09-11T09:28:37.614Z,4.50
2023-09-11T09:31:06.855Z,3.58
2023-09-11T09:33:37.433Z,3.88
2023-09-11T09:36:06.425Z,4.35
2023-09-11T09:38:35.613Z,4.57
2023-09-11T09:41:11.640Z,4.97
2023-09-11T09:43:40.816Z,5.10
2023-09-11T09:46:22.493Z,4.90
2023-09-11T09:48:55.301Z,5.05
2023-09-11T09:51:24.372Z,5.57
2023-09-11T09:53:56.334Z,6.15
2023-09-11T09:56:25.190Z,5.25
2023-09-11T09:58:55.644Z,5.53
2023-09-11T10:01:25.398Z,6.32
2023-09-11T10:03:56.712Z,5.95
2023-09-11T10:06:28.152Z,5.80
2023-09-11T10:09:08.883Z,5.40
2023-09-11T10:11:38.968Z,6.72
2023-09-11T10:14:09.123Z,6.20
2023-09-11T10:16:38.183Z,6.18
2023-09-11T10:19:08.483Z,5.68
2023-09-11T10:21:37.781Z,5.45
2023-09-11T10:24:07.516Z,5.65
2023-09-11T10:26:39.478Z,5.65
2023-09-11T10:29:10.501Z,6.50
2023-09-11T10:31:44.774Z,5.55
2023-09-11T10:34:14.898Z,5.63
2023-09-11T10:36:54.852Z,5.40
2023-09-11T10:39:24.694Z,5.85
2023-09-11T10:41:53.436Z,5.25
2023-09-11T10:44:22.041Z,5.05
2023-09-11T10:46:52.381Z,5.53
2023-09-11T10:49:24.362Z,5.22
2023-09-11T10:51:53.521Z,5.28
2023-09-11T10:54:23.509Z,4.68
2023-09-11T10:56:53.460Z,5.47
2023-09-11T10:59:24.683Z,4.20
2023-09-11T11:01:53.944Z,4.82
2023-09-11T11:04:26.412Z,4.40
2023-09-11T11:06:56.878Z,5.35
2023-09-11T11:09:32.984Z,7.13
2023-09-11T11:12:05.268Z,8.43
2023-09-11T11:14:35.460Z,6.97
2023-09-11T11:17:10.399Z,6.60
2023-09-11T11:19:42.358Z,7.10
2023-09-11T11:22:11.428Z,6.28
2023-09-11T11:24:53.695Z,6.40
2023-09-11T11:27:22.307Z,6.18
2023-09-11T11:29:50.821Z,5.82
2023-09-11T11:32:20.686Z,5.22
2023-09-11T11:34:51.792Z,4.85
2023-09-11T11:37:22.646Z,8.25
2023-09-11T11:39:51.796Z,6.57
2023-09-11T11:42:23.415Z,6.70
2023-09-11T11:44:52.218Z,8.00
2023-09-11T11:47:21.687Z,6.75
2023-09-11T11:49:57.335Z,5.32
2023-09-11T11:52:28.956Z,5.28
2023-09-11T11:55:03.899Z,5.75
2023-09-11T11:57:35.629Z,6.47
2023-09-11T12:00:15.396Z,6.07
2023-09-11T12:02:47.235Z,6.45
2023-09-11T12:05:18.234Z,7.10
2023-09-11T12:07:46.996Z,6.63
2023-09-11T12:10:20.810Z,7.10
2023-09-11T12:18:39.297Z,8.90
2023-09-11T12:21:09.988Z,7.43
2023-09-11T12:23:38.960Z,7.15
2023-09-11T12:26:09.127Z,7.70
2023-09-11T12:28:38.558Z,7.68
2023-09-11T12:31:07.174Z,7.97
2023-09-11T12:33:36.965Z,8.25
2023-09-11T12:36:06.068Z,8.35
2023-09-11T12:38:36.594Z,8.02
2023-09-11T12:41:06.507Z,7.38
2023-09-11T12:43:35.249Z,7.47
2023-09-11T12:46:05.133Z,10.65
2023-09-11T12:48:34.639Z,11.07
2023-09-11T12:51:07.337Z,11.30
2023-09-11T12:53:38.787Z,13.10
2023-09-11T12:56:09.986Z,12.13
2023-09-11T12:58:40.770Z,12.10
2023-09-11T13:01:14.023Z,12.38
2023-09-11T13:03:47.406Z,13.63
2023-09-11T13:06:16.330Z,14.40
2023-09-11T13:08:46.725Z,12.48
2023-09-11T13:11:15.838Z,13.18
2023-09-11T13:13:44.754Z,12.70
2023-09-11T13:16:15.034Z,13.13
2023-09-11T13:18:43.580Z,13.60
2023-09-11T13:21:12.273Z,12.88
2023-09-11T13:23:42.858Z,12.90
2023-09-11T13:26:13.688Z,13.88
2023-09-11T13:28:42.166Z,12.07
2023-09-11T13:31:10.766Z,12.75
2023-09-11T13:33:39.722Z,13.48
2023-09-11T13:36:08.916Z,12.70
2023-09-11T13:38:37.855Z,12.75
2023-09-11T13:41:07.124Z,12.98
2023-09-11T13:43:37.198Z,13.23
2023-09-11T13:46:06.958Z,13.25
2023-09-11T13:48:35.707Z,13.25
2023-09-11T13:51:05.048Z,13.02
2023-09-11T13:53:33.701Z,13.20
2023-09-11T13:56:02.680Z,12.65
2023-09-11T13:58:31.184Z,12.38
2023-09-11T14:01:01.356Z,12.52
2023-09-11T14:03:30.522Z,12.43
2023-09-11T14:06:01.856Z,12.73
2023-09-11T14:08:30.665Z,13.48
2023-09-11T14:10:59.324Z,12.00
2023-09-11T14:13:28.031Z,11.95
2023-09-11T14:15:57.075Z,12.88
2023-09-11T14:18:30.126Z,11.93
2023-09-11T14:20:58.836Z,11.38
2023-09-11T14:23:27.609Z,11.30
2023-09-11T14:25:57.542Z,12.30
2023-09-11T14:28:26.368Z,11.55
2023-09-11T14:30:55.239Z,11.45
2023-09-11T14:33:23.985Z,12.45
2023-09-11T14:35:54.022Z,11.85
2023-09-11T14:38:28.254Z,11.80
2023-09-11T14:40:57.414Z,12.10
2023-09-11T14:43:26.080Z,11.85
2023-09-11T14:45:54.675Z,11.18
2023-09-11T14:48:23.442Z,11.73
2023-09-11T14:50:53.535Z,10.27
2023-09-11T14:53:22.405Z,9.23
2023-09-11T14:55:51.272Z,9.88
2023-09-11T14:58:19.847Z,9.15
2023-09-11T15:00:48.688Z,9.38
2023-09-11T15:03:17.288Z,9.45
2023-09-11T15:05:46.138Z,9.50
2023-09-11T15:08:16.476Z,8.90
2023-09-11T15:10:47.387Z,9.57
2023-09-11T15:13:16.478Z,9.07
2023-09-11T15:15:45.594Z,9.65
2023-09-11T15:18:14.638Z,9.68
2023-09-11T15:20:46.108Z,10.27
2023-09-11T15:23:16.791Z,9.98
2023-09-11T15:25:45.638Z,9.57
2023-09-11T15:28:14.389Z,9.82
2023-09-11T15:30:43.304Z,10.18
2023-09-11T15:33:13.410Z,11.02
2023-09-11T15:36:03.937Z,9.70
2023-09-11T15:38:37.491Z,11.18
2023-09-11T15:41:06.612Z,9.68
2023-09-11T15:43:36.612Z,13.02
2023-09-11T15:46:06.247Z,10.43
2023-09-11T15:48:38.337Z,10.75
2023-09-11T15:51:07.933Z,10.88
2023-09-11T15:53:39.859Z,10.68
2023-09-11T15:56:08.622Z,10.52
2023-09-11T15:58:37.211Z,11.90
2023-09-11T16:01:06.324Z,10.68
2023-09-11T16:03:35.037Z,10.18
2023-09-11T16:06:05.618Z,11.82
2023-09-11T16:08:34.178Z,11.07
2023-09-11T16:11:04.491Z,9.75
2023-09-11T16:13:34.003Z,10.30
2023-09-11T16:16:02.876Z,10.30
2023-09-11T16:18:31.800Z,10.55
2023-09-11T16:21:00.535Z,10.38
2023-09-11T16:23:31.765Z,10.25
2023-09-11T16:26:00.521Z,10.05
2023-09-11T16:28:33.125Z,10.43
2023-09-11T16:31:01.932Z,10.68
2023-09-11T16:33:30.586Z,10.68
2023-09-11T16:35:59.432Z,10.20
2023-09-11T16:38:27.973Z,10.70
2023-09-11T16:40:56.606Z,10.57
2023-09-11T16:43:25.761Z,10.60
2023-09-11T16:45:55.663Z,10.13
2023-09-11T16:48:24.260Z,11.52
2023-09-11T16:50:53.219Z,11.63
2023-09-11T16:53:21.627Z,11.45
2023-09-11T16:55:50.708Z,11.63
2023-09-11T16:58:19.303Z,11.50
2023-09-11T17:00:48.131Z,12.07
2023-09-11T17:03:18.411Z,11.52
2023-09-11T17:05:47.555Z,11.75
2023-09-11T17:08:16.665Z,11.75
2023-09-11T17:10:45.408Z,12.07
2023-09-11T17:13:14.149Z,12.18
2023-09-11T17:15:42.614Z,11.90
2023-09-11T17:18:11.200Z,11.70
2023-09-11T17:20:43.064Z,12.43
2023-09-11T17:23:13.205Z,11.43
2023-09-11T17:25:44.965Z,11.18
2023-09-11T17:28:13.630Z,11.90
2023-09-11T17:30:42.479Z,12.27
2023-09-11T17:33:11.670Z,11.93
2023-09-11T17:35:40.613Z,16.55
2023-09-11T17:38:10.723Z,12.38
2023-09-11T17:40:39.595Z,12.85
2023-09-11T17:43:08.307Z,11.88
2023-09-11T17:45:38.143Z,12.85
2023-09-11T17:48:07.297Z,16.77
2023-09-11T17:50:35.928Z,12.93
2023-09-11T17:53:04.659Z,12.57
2023-09-11T17:55:34.883Z,13.25
2023-09-11T17:58:04.172Z,12.77
2023-09-11T18:00:32.731Z,12.80
2023-09-11T18:03:01.739Z,12.80
2023-09-11T18:05:30.708Z,13.13
2023-09-11T18:07:59.466Z,12.57
2023-09-11T18:10:28.337Z,12.75
2023-09-11T18:12:59.036Z,12.57
2023-09-11T18:15:27.976Z,13.15
2023-09-11T18:17:57.020Z,12.88
2023-09-11T18:20:25.683Z,13.30
2023-09-11T18:22:54.175Z,13.07
2023-09-11T18:25:23.350Z,13.82
2023-09-11T18:27:51.801Z,13.43
2023-09-11T18:30:22.009Z,13.52
2023-09-11T18:32:50.828Z,13.27
2023-09-11T18:35:19.322Z,12.90
2023-09-11T18:37:50.632Z,12.73
2023-09-11T18:40:19.952Z,13.13
2023-09-11T18:42:48.524Z,14.27
2023-09-11T18:45:17.954Z,15.27
2023-09-11T18:47:49.182Z,13.80
2023-09-11T18:50:18.952Z,14.27
2023-09-11T18:52:47.945Z,13.65
2023-09-11T18:55:17.080Z,13.35
2023-09-11T18:57:45.703Z,14.32
2023-09-11T19:00:16.503Z,14.20
2023-09-11T19:02:45.559Z,13.90
2023-09-11T19:05:15.655Z,14.07
2023-09-11T19:07:44.574Z,14.60
2023-09-11T19:10:13.780Z,24.20
2023-09-11T19:12:44.018Z,18.35
2023-09-11T19:15:13.875Z,14.73
2023-09-11T19:17:42.826Z,14.00
2023-09-11T19:20:12.129Z,15.05
2023-09-11T19:22:42.217Z,14.88
2023-09-11T19:25:11.935Z,14.73
2023-09-11T19:27:41.292Z,15.50
2023-09-11T19:30:11.669Z,15.02
2023-09-11T19:32:41.307Z,15.38
2023-09-11T19:35:10.429Z,14.55
2023-09-11T19:37:38.922Z,14.90
2023-09-11T19:40:11.768Z,13.73
2023-09-11T19:42:40.468Z,14.93
2023-09-11T19:45:09.809Z,15.23
2023-09-11T19:47:38.573Z,15.45
2023-09-11T19:50:08.350Z,15.57
2023-09-11T19:52:37.053Z,14.80
2023-09-11T19:55:06.057Z,15.85
2023-09-11T19:57:37.526Z,17.30
2023-09-11T20:00:08.109Z,15.20
2023-09-11T20:02:39.711Z,15.63
2023-09-11T20:05:09.261Z,15.52
2023-09-11T20:07:37.820Z,14.98
2023-09-11T20:10:07.307Z,15.98
2023-09-11T20:12:38.633Z,14.65
2023-09-11T20:15:08.928Z,15.70
2023-09-11T20:17:38.780Z,15.02
2023-09-11T20:20:08.822Z,15.23
2023-09-11T20:22:37.719Z,15.88
2023-09-11T20:25:06.875Z,14.70
2023-09-11T20:27:37.113Z,16.05
2023-09-11T20:30:06.420Z,16.38
2023-09-11T20:32:35.287Z,16.52
2023-09-11T20:35:04.402Z,16.02
2023-09-11T20:37:35.373Z,16.10
2023-09-11T20:40:04.573Z,16.67
2023-09-11T20:42:34.446Z,18.33
2023-09-11T20:45:04.679Z,16.60
2023-09-11T20:47:33.851Z,16.77
2023-09-11T20:50:02.704Z,16.65
2023-09-11T20:52:33.144Z,17.52
2023-09-11T20:55:05.254Z,18.02
2023-09-11T20:57:34.912Z,17.58
2023-09-11T21:00:05.494Z,16.65
2023-09-11T21:02:37.146Z,17.37
2023-09-11T21:05:09.564Z,16.20
2023-09-11T21:07:41.133Z,16.17
2023-09-11T21:10:10.734Z,17.20
2023-09-11T21:12:51.697Z,18.20
2023-09-11T21:15:22.504Z,16.30
2023-09-11T21:17:52.310Z,16.33
2023-09-11T21:20:21.588Z,17.67
2023-09-11T21:22:50.473Z,17.10
2023-09-11T21:25:20.799Z,16.75
2023-09-11T21:27:51.237Z,17.33
2023-09-11T21:30:21.827Z,17.95
2023-09-11T21:32:51.046Z,16.85
2023-09-11T21:35:20.153Z,16.90
2023-09-11T21:37:49.253Z,18.15
2023-09-11T21:40:20.856Z,18.52
2023-09-11T21:42:51.679Z,18.95
2023-09-11T21:45:22.110Z,18.45
2023-09-11T21:47:51.291Z,17.23
2023-09-11T21:50:19.963Z,18.05
2023-09-11T21:52:48.898Z,17.45
2023-09-11T21:55:18.432Z,17.02
2023-09-11T21:57:47.788Z,18.25
2023-09-11T22:00:17.306Z,18.85
2023-09-11T22:02:49.365Z,17.45
2023-09-11T22:05:19.530Z,18.95
2023-09-11T22:07:48.216Z,18.75
2023-09-11T22:10:16.964Z,17.77
2023-09-11T22:12:47.639Z,17.52
2023-09-11T22:15:16.721Z,17.65
2023-09-11T22:17:45.469Z,17.13
2023-09-11T22:20:16.408Z,18.13
2023-09-11T22:22:45.535Z,17.75
2023-09-11T22:25:14.289Z,19.42
2023-09-11T22:27:43.848Z,18.02
2023-09-11T22:30:13.187Z,16.85
2023-09-11T22:32:53.617Z,18.25
2023-09-11T22:35:30.574Z,17.60
2023-09-11T22:38:04.367Z,17.70
2023-09-11T22:40:35.238Z,17.27
2023-09-11T22:43:06.096Z,17.45
2023-09-11T22:45:34.951Z,17.00
2023-09-11T22:48:06.786Z,18.38
2023-09-11T22:50:39.821Z,17.48
2023-09-11T22:53:10.614Z,16.63
2023-09-11T22:55:39.476Z,17.73
2023-09-11T22:58:08.842Z,17.17
2023-09-11T23:00:40.922Z,17.00
2023-09-11T23:03:10.955Z,17.00
2023-09-11T23:05:42.623Z,16.77
2023-09-11T23:08:11.435Z,18.00
2023-09-11T23:10:40.249Z,18.08
2023-09-11T23:13:08.793Z,18.50
2023-09-11T23:15:37.749Z,17.98
2023-09-11T23:18:07.227Z,17.45
2023-09-11T23:20:35.771Z,16.98
2023-09-11T23:23:06.238Z,18.13
2023-09-11T23:25:36.414Z,17.35
2023-09-11T23:28:05.854Z,18.38
2023-09-11T23:30:34.736Z,18.00
2023-09-11T23:33:03.427Z,17.20
2023-09-11T23:35:32.371Z,17.45
2023-09-11T23:38:01.373Z,19.05
2023-09-11T23:40:31.906Z,17.08
2023-09-11T23:43:02.148Z,16.92
2023-09-11T23:45:30.806Z,17.42
2023-09-11T23:47:59.541Z,16.95
2023-09-11T23:50:28.251Z,17.13
2023-09-11T23:52:57.376Z,18.15
2023-09-11T23:55:26.400Z,18.10
2023-09-11T23:57:56.336Z,18.77
